Time;durP1;ratioP1;P1;durP2;ratioP2;P2;SDS_P1;SDS_P2;PMS_P1;PMS_P2;Temp;Humidity;BMP_temperature;BMP_pressure;BME280_temperature;BME280_humidity;BME280_pressure;Samples;Min_cycle;Max_cycle;Signal;HPM_P1;HPM_P2
2022/11/24 00:01:29;0.00;0.00;0.62;0.00;0.00;0.62;1.30;0.60;;;23.30;24.70;;;;;;2235688;62;20407;-62
2022/11/24 00:04:14;0.00;0.00;0.62;0.00;0.00;0.62;1.70;0.80;;;23.30;24.70;;;;;;2236447;62;20927;-61
2022/11/24 00:06:59;0.00;0.00;0.62;0.00;0.00;0.62;1.30;0.70;;;23.30;24.70;;;;;;2235394;62;20411;-65
2022/11/24 00:09:43;0.00;0.00;0.62;0.00;0.00;0.62;1.30;0.60;;;23.30;24.70;;;;;;2235987;62;20399;-62
2022/11/24 00:12:30;0.00;0.00;0.62;0.00;0.00;0.62;1.87;0.90;;;23.30;24.70;;;;;;2236405;62;20492;-62
2022/11/24 00:15:15;0.00;0.00;0.62;0.00;0.00;0.62;1.20;0.60;;;23.30;24.70;;;;;;2235182;62;20374;-64
2022/11/24 00:18:01;0.00;0.00;0.62;0.00;0.00;0.62;1.40;0.70;;;23.20;24.70;;;;;;2236429;62;20932;-63
2022/11/24 00:20:51;0.00;0.00;0.62;0.00;0.00;0.62;1.30;0.70;;;23.30;24.70;;;;;;2235505;62;20421;-62
2022/11/24 00:23:37;0.00;0.00;0.62;0.00;0.00;0.62;1.40;0.70;;;23.30;24.70;;;;;;2235712;62;20462;-63
2022/11/24 00:26:25;0.00;0.00;0.62;0.00;0.00;0.62;1.20;0.60;;;23.30;24.80;;;;;;2236441;62;20370;-62
2022/11/24 00:29:11;0.00;0.00;0.62;0.00;0.00;0.62;1.30;0.70;;;23.30;24.70;;;;;;2235241;62;20366;-64
2022/11/24 00:31:56;0.00;0.00;0.62;0.00;0.00;0.62;1.40;0.70;;;23.30;24.70;;;;;;2236074;62;20393;-63
2022/11/24 00:34:41;0.00;0.00;0.62;0.00;0.00;0.62;1.50;0.80;;;23.30;24.70;;;;;;2236315;62;20503;-63
2022/11/24 00:37:26;0.00;0.00;0.62;0.00;0.00;0.62;1.30;0.70;;;23.30;24.80;;;;;;2235062;62;20421;-64
2022/11/24 00:40:12;0.00;0.00;0.62;0.00;0.00;0.62;1.60;0.73;;;23.30;24.70;;;;;;2236350;62;20366;-64
2022/11/24 00:42:57;0.00;0.00;0.62;0.00;0.00;0.62;1.30;0.70;;;23.30;25.00;;;;;;2235652;62;20478;-63
2022/11/24 00:45:43;0.00;0.00;0.62;0.00;0.00;0.62;1.30;0.70;;;23.30;24.80;;;;;;2235849;62;20418;-63
2022/11/24 00:48:29;0.00;0.00;0.62;0.00;0.00;0.62;1.63;0.77;;;23.30;24.80;;;;;;2233126;62;20374;-66
2022/11/24 00:51:17;0.00;0.00;0.62;0.00;0.00;0.62;1.63;0.67;;;23.30;24.80;;;;;;2235243;62;20406;-64
2022/11/24 00:54:02;0.00;0.00;0.62;0.00;0.00;0.62;1.80;0.70;;;23.30;24.80;;;;;;2236142;62;20487;-63
2022/11/24 00:56:47;0.00;0.00;0.62;0.00;0.00;0.62;1.30;0.70;;;23.30;24.80;;;;;;2236131;62;20895;-65
2022/11/24 00:59:32;0.00;0.00;0.62;0.00;0.00;0.62;1.30;0.60;;;23.30;24.80;;;;;;2235319;62;20373;-64
2022/11/24 01:02:19;0.00;0.00;0.62;0.00;0.00;0.62;1.30;0.60;;;23.30;24.80;;;;;;2236376;62;20414;-61
2022/11/24 01:05:05;0.00;0.00;0.62;0.00;0.00;0.62;1.30;0.70;;;23.30;24.80;;;;;;2235529;62;20378;-65
2022/11/24 01:07:50;0.00;0.00;0.62;0.00;0.00;0.62;1.30;0.70;;;23.30;24.80;;;;;;2235780;62;20997;-67
2022/11/24 01:10:35;0.00;0.00;0.62;0.00;0.00;0.62;1.50;0.87;;;23.30;24.80;;;;;;2236051;62;20915;-65
2022/11/24 01:13:20;0.00;0.00;0.62;0.00;0.00;0.62;1.47;0.77;;;23.30;24.80;;;;;;2235492;62;20395;-65
2022/11/24 01:16:06;0.00;0.00;0.62;0.00;0.00;0.62;1.30;0.70;;;23.30;24.80;;;;;;2236043;62;20375;-63
2022/11/24 01:18:52;0.00;0.00;0.62;0.00;0.00;0.62;2.07;0.70;;;23.30;24.80;;;;;;2236036;62;20414;-63
2022/11/24 01:21:37;0.00;0.00;0.62;0.00;0.00;0.62;1.40;0.70;;;23.30;24.80;;;;;;2232390;62;20434;-62
2022/11/24 01:24:22;0.00;0.00;0.62;0.00;0.00;0.62;1.30;0.70;;;23.30;24.80;;;;;;2232815;62;20395;-65
2022/11/24 01:27:07;0.00;0.00;0.62;0.00;0.00;0.62;1.20;0.60;;;23.30;24.80;;;;;;2235684;62;20911;-64
2022/11/24 01:29:52;0.00;0.00;0.62;0.00;0.00;0.62;1.30;0.60;;;23.30;24.90;;;;;;2235420;62;20366;-62
2022/11/24 01:32:38;0.00;0.00;0.62;0.00;0.00;0.62;1.30;0.77;;;23.30;24.90;;;;;;2236281;62;20902;-66
2022/11/24 01:35:24;0.00;0.00;0.62;0.00;0.00;0.62;1.43;0.70;;;23.30;24.90;;;;;;2235697;62;20869;-60
2022/11/24 01:38:09;0.00;0.00;0.62;0.00;0.00;0.62;1.50;0.80;;;23.30;24.90;;;;;;2235689;62;20386;-64
2022/11/24 01:41:01;0.00;0.00;0.62;0.00;0.00;0.62;1.30;0.60;;;23.30;24.90;;;;;;2467146;54;20830;-66
2022/11/24 01:43:46;0.00;0.00;0.62;0.00;0.00;0.62;1.30;0.70;;;23.30;24.90;;;;;;2235602;62;20422;-64
2022/11/24 01:46:40;0.00;0.00;0.62;0.00;0.00;0.62;1.30;0.70;;;23.30;24.90;;;;;;2236688;62;20418;-65
2022/11/24 01:49:33;0.00;0.00;0.62;0.00;0.00;0.62;1.50;0.80;;;23.30;24.90;;;;;;2236878;62;20374;-64
2022/11/24 01:52:25;0.00;0.00;0.62;0.00;0.00;0.62;1.40;0.80;;;23.30;25.00;;;;;;2236554;61;21048;-67
2022/11/24 01:55:17;0.00;0.00;0.62;0.00;0.00;0.62;1.40;0.70;;;23.30;24.90;;;;;;2236723;62;20414;-65
2022/11/24 01:58:06;0.00;0.00;0.62;0.00;0.00;0.62;1.60;0.90;;;23.30;24.90;;;;;;2236790;62;20386;-64
2022/11/24 02:00:52;0.00;0.00;0.62;0.00;0.00;0.62;1.40;0.70;;;23.30;24.90;;;;;;2237334;62;20363;-64
2022/11/24 02:03:40;0.00;0.00;0.62;0.00;0.00;0.62;1.30;0.60;;;23.30;24.90;;;;;;2237202;62;20999;-64
2022/11/24 02:06:28;0.00;0.00;0.62;0.00;0.00;0.62;2.03;0.90;;;23.30;24.90;;;;;;2232425;62;20816;-65
2022/11/24 02:09:21;0.00;0.00;0.62;0.00;0.00;0.62;1.30;0.80;;;23.30;24.90;;;;;;2233489;62;20891;-65
2022/11/24 02:12:06;0.00;0.00;0.62;0.00;0.00;0.62;1.40;0.70;;;23.30;24.90;;;;;;2235465;62;20402;-63
2022/11/24 02:14:53;0.00;0.00;0.62;0.00;0.00;0.62;1.30;0.60;;;23.30;24.90;;;;;;2236057;62;20378;-63
2022/11/24 02:17:38;0.00;0.00;0.62;0.00;0.00;0.62;1.30;0.60;;;23.30;25.40;;;;;;2236138;62;20413;-63
2022/11/24 02:20:24;0.00;0.00;0.62;0.00;0.00;0.62;1.50;0.60;;;23.30;24.90;;;;;;2231978;62;20369;-63
2022/11/24 02:23:20;0.00;0.00;0.62;0.00;0.00;0.62;1.50;0.90;;;23.30;24.90;;;;;;2235857;62;20458;-63
2022/11/24 02:26:17;0.00;0.00;0.62;0.00;0.00;0.62;1.30;0.70;;;23.30;25.00;;;;;;2236085;62;20363;-65
2022/11/24 02:29:04;0.00;0.00;0.62;0.00;0.00;0.62;1.40;0.60;;;23.30;24.90;;;;;;2235544;61;20374;-62
2022/11/24 02:31:56;0.00;0.00;0.62;0.00;0.00;0.62;1.30;0.67;;;23.30;24.90;;;;;;2235828;62;20429;-63
2022/11/24 02:34:41;0.00;0.00;0.62;0.00;0.00;0.62;2.30;0.90;;;23.30;24.90;;;;;;2232225;62;20374;-62
2022/11/24 02:37:26;0.00;0.00;0.62;0.00;0.00;0.62;1.77;0.80;;;23.30;24.90;;;;;;2236281;62;20366;-62
2022/11/24 02:40:15;0.00;0.00;0.62;0.00;0.00;0.62;2.17;1.00;;;23.30;24.90;;;;;;2236505;62;20378;-62
2022/11/24 02:43:06;0.00;0.00;0.62;0.00;0.00;0.62;1.90;1.00;;;23.30;24.80;;;;;;2236145;62;20889;-63
2022/11/24 02:45:53;0.00;0.00;0.62;0.00;0.00;0.62;1.97;1.00;;;23.20;24.70;;;;;;2236901;62;20418;-62
2022/11/24 02:48:38;0.00;0.00;0.62;0.00;0.00;0.62;1.60;0.90;;;23.20;24.70;;;;;;2235920;62;20430;-64
2022/11/24 02:51:23;0.00;0.00;0.62;0.00;0.00;0.62;1.60;0.90;;;23.20;24.70;;;;;;2236504;62;20836;-64
2022/11/24 02:54:08;0.00;0.00;0.62;0.00;0.00;0.62;1.83;0.87;;;23.20;24.70;;;;;;2236688;62;20366;-64
2022/11/24 02:56:54;0.00;0.00;0.62;0.00;0.00;0.62;2.03;1.10;;;23.20;24.70;;;;;;2236081;62;20369;-63
2022/11/24 02:59:39;0.00;0.00;0.62;0.00;0.00;0.62;1.60;1.00;;;23.20;24.70;;;;;;2236028;62;20399;-63
2022/11/24 03:02:25;0.00;0.00;0.62;0.00;0.00;0.62;2.23;1.20;;;23.20;24.70;;;;;;2236829;62;20390;-64
2022/11/24 03:05:11;0.00;0.00;0.62;0.00;0.00;0.62;2.40;1.20;;;23.20;24.70;;;;;;2235976;62;20855;-62
2022/11/24 03:07:56;0.00;0.00;0.62;0.00;0.00;0.62;1.83;1.00;;;23.10;24.60;;;;;;2236730;62;20418;-61
2022/11/24 03:10:42;0.00;0.00;0.62;0.00;0.00;0.62;1.97;0.97;;;23.10;24.60;;;;;;2236134;62;20381;-62
2022/11/24 03:13:26;0.00;0.00;0.62;0.00;0.00;0.62;2.70;1.40;;;23.10;24.60;;;;;;2236262;62;20901;-62
2022/11/24 03:16:11;0.00;0.00;0.62;0.00;0.00;0.62;3.43;1.10;;;23.10;24.60;;;;;;2236608;62;20370;-62
2022/11/24 03:18:58;0.00;0.00;0.62;0.00;0.00;0.62;2.80;1.20;;;23.10;24.60;;;;;;2232854;62;20370;-61
2022/11/24 03:21:43;0.00;0.00;0.62;0.00;0.00;0.62;1.73;1.10;;;23.10;24.60;;;;;;2235847;62;20386;-63
2022/11/24 03:24:28;0.00;0.00;0.62;0.00;0.00;0.62;2.00;1.20;;;23.10;24.60;;;;;;2236563;62;20817;-61
2022/11/24 03:27:13;0.00;0.00;0.62;0.00;0.00;0.62;2.13;1.07;;;23.00;24.60;;;;;;2235805;62;20958;-63
2022/11/24 03:29:58;0.00;0.00;0.62;0.00;0.00;0.62;3.13;1.50;;;23.00;24.60;;;;;;2236258;62;20446;-61
2022/11/24 03:32:43;0.00;0.00;0.62;0.00;0.00;0.62;2.37;1.10;;;23.00;24.60;;;;;;2236771;62;20437;-62
2022/11/24 03:35:29;0.00;0.00;0.62;0.00;0.00;0.62;2.73;1.27;;;23.00;24.60;;;;;;2236120;62;20370;-63
2022/11/24 03:38:14;0.00;0.00;0.62;0.00;0.00;0.62;2.50;1.27;;;23.00;24.60;;;;;;2236517;62;21008;-62
2022/11/24 03:40:59;0.00;0.00;0.62;0.00;0.00;0.62;2.00;1.30;;;23.00;24.60;;;;;;2235817;62;20420;-63
2022/11/24 03:43:44;0.00;0.00;0.62;0.00;0.00;0.62;4.60;1.90;;;23.00;24.60;;;;;;2233110;62;20386;-63
2022/11/24 03:46:28;0.00;0.00;0.62;0.00;0.00;0.62;2.47;1.90;;;22.90;24.50;;;;;;2236555;62;20371;-64
2022/11/24 03:49:13;0.00;0.00;0.62;0.00;0.00;0.62;2.50;1.27;;;22.90;24.50;;;;;;2232533;62;20834;-63
2022/11/24 03:52:00;0.00;0.00;0.62;0.00;0.00;0.62;3.00;1.43;;;22.90;24.50;;;;;;2236326;62;20457;-64
2022/11/24 03:54:46;0.00;0.00;0.62;0.00;0.00;0.62;5.13;1.73;;;22.90;24.60;;;;;;2236646;62;20783;-63
2022/11/24 03:57:31;0.00;0.00;0.62;0.00;0.00;0.62;2.87;1.40;;;22.90;24.60;;;;;;2235758;62;20367;-63
2022/11/24 04:00:17;0.00;0.00;0.62;0.00;0.00;0.62;4.97;1.93;;;22.90;24.60;;;;;;2236272;62;20518;-63
2022/11/24 04:03:02;0.00;0.00;0.62;0.00;0.00;0.62;2.60;1.70;;;22.80;24.50;;;;;;2235851;62;20458;-62
2022/11/24 04:05:47;0.00;0.00;0.62;0.00;0.00;0.62;3.23;1.43;;;22.80;24.60;;;;;;2235946;62;20897;-63
2022/11/24 04:08:34;0.00;0.00;0.62;0.00;0.00;0.62;2.70;1.40;;;22.80;24.50;;;;;;2236547;62;20365;-61
2022/11/24 04:14:22;0.00;0.00;0.62;0.00;0.00;0.62;2.23;1.33;;;22.70;24.60;;;;;;2236359;62;20422;-63
2022/11/24 04:17:08;0.00;0.00;0.62;0.00;0.00;0.62;3.10;1.50;;;22.70;24.60;;;;;;2236586;62;20362;-64
2022/11/24 04:19:53;0.00;0.00;0.62;0.00;0.00;0.62;2.10;1.10;;;22.70;24.60;;;;;;2235856;62;20370;-62
2022/11/24 04:22:37;0.00;0.00;0.62;0.00;0.00;0.62;2.90;1.50;;;22.70;24.60;;;;;;2233444;62;20460;-63
2022/11/24 04:25:24;0.00;0.00;0.62;0.00;0.00;0.62;1.87;1.27;;;22.70;24.60;;;;;;2235762;62;20439;-61
2022/11/24 04:28:09;0.00;0.00;0.62;0.00;0.00;0.62;3.90;1.90;;;22.70;24.60;;;;;;2236023;62;20883;-63
2022/11/24 04:30:54;0.00;0.00;0.62;0.00;0.00;0.62;1.70;1.20;;;22.60;24.50;;;;;;2236513;62;20943;-64
2022/11/24 04:33:39;0.00;0.00;0.62;0.00;0.00;0.62;3.07;1.63;;;22.60;24.60;;;;;;2235726;62;20453;-64
2022/11/24 04:36:23;0.00;0.00;0.62;0.00;0.00;0.62;2.23;1.27;;;22.60;24.60;;;;;;2236023;62;20397;-63
2022/11/24 04:39:09;0.00;0.00;0.62;0.00;0.00;0.62;2.07;1.30;;;22.60;24.60;;;;;;2236389;62;20366;-64
2022/11/24 04:41:55;0.00;0.00;0.62;0.00;0.00;0.62;2.20;1.30;;;22.60;24.60;;;;;;2232647;62;20438;-61
2022/11/24 04:44:39;0.00;0.00;0.62;0.00;0.00;0.62;2.70;1.53;;;22.50;24.60;;;;;;2236399;62;20425;-63
2022/11/24 04:47:25;0.00;0.00;0.62;0.00;0.00;0.62;3.50;1.63;;;22.50;24.60;;;;;;2235572;62;20415;-63
2022/11/24 04:50:10;0.00;0.00;0.62;0.00;0.00;0.62;2.10;1.20;;;22.50;24.60;;;;;;2235791;62;20369;-63
2022/11/24 04:52:55;0.00;0.00;0.62;0.00;0.00;0.62;4.03;1.73;;;22.50;24.70;;;;;;2232557;62;20439;-63
2022/11/24 04:55:40;0.00;0.00;0.62;0.00;0.00;0.62;2.77;1.20;;;22.50;24.60;;;;;;2231717;62;20803;-62
2022/11/24 04:58:26;0.00;0.00;0.62;0.00;0.00;0.62;3.37;1.40;;;22.50;24.60;;;;;;2231835;62;20371;-63
2022/11/24 05:01:11;0.00;0.00;0.62;0.00;0.00;0.62;3.13;1.47;;;22.50;24.60;;;;;;2231973;62;20797;-63
2022/11/24 05:03:57;0.00;0.00;0.62;0.00;0.00;0.62;2.80;1.47;;;22.50;24.70;;;;;;2228206;62;20943;-63
2022/11/24 05:06:42;0.00;0.00;0.62;0.00;0.00;0.62;2.07;1.10;;;22.50;24.70;;;;;;2231891;62;20375;-63
2022/11/24 05:09:26;0.00;0.00;0.62;0.00;0.00;0.62;3.60;1.43;;;22.40;24.60;;;;;;2231715;62;20444;-63
2022/11/24 05:12:11;0.00;0.00;0.62;0.00;0.00;0.62;2.70;1.63;;;22.40;24.60;;;;;;2232217;62;20391;-63
2022/11/24 05:14:58;0.00;0.00;0.62;0.00;0.00;0.62;2.97;1.40;;;22.40;24.60;;;;;;2233270;62;20404;-63
2022/11/24 05:17:43;0.00;0.00;0.62;0.00;0.00;0.62;2.70;1.50;;;22.40;24.60;;;;;;2231709;62;20374;-63
2022/11/24 05:20:27;0.00;0.00;0.62;0.00;0.00;0.62;4.83;2.23;;;22.40;24.60;;;;;;2231908;62;20367;-64
2022/11/24 05:23:12;0.00;0.00;0.62;0.00;0.00;0.62;2.83;1.47;;;22.30;24.50;;;;;;2229227;62;20376;-64
2022/11/24 05:25:59;0.00;0.00;0.62;0.00;0.00;0.62;4.13;1.37;;;22.40;24.60;;;;;;2231691;62;20537;-63
2022/11/24 05:28:44;0.00;0.00;0.62;0.00;0.00;0.62;2.37;1.50;;;22.30;24.60;;;;;;2232261;62;20459;-64
2022/11/24 05:31:30;0.00;0.00;0.62;0.00;0.00;0.62;3.97;1.50;;;22.30;24.60;;;;;;2231726;62;20391;-64
2022/11/24 05:34:15;0.00;0.00;0.62;0.00;0.00;0.62;5.60;2.00;;;22.30;24.60;;;;;;2231851;62;20379;-63
2022/11/24 05:37:02;0.00;0.00;0.62;0.00;0.00;0.62;3.60;1.77;;;22.30;24.70;;;;;;2228951;62;20770;-64
2022/11/24 05:39:47;0.00;0.00;0.62;0.00;0.00;0.62;3.00;1.53;;;22.30;24.70;;;;;;2231397;62;20367;-63
2022/11/24 05:42:41;0.00;0.00;0.62;0.00;0.00;0.62;4.93;1.63;;;22.30;24.70;;;;;;2231791;62;20399;-63
2022/11/24 05:45:25;0.00;0.00;0.62;0.00;0.00;0.62;3.50;1.97;;;22.20;25.10;;;;;;2232273;62;20459;-63
2022/11/24 05:48:14;0.00;0.00;0.62;0.00;0.00;0.62;3.83;1.90;;;22.20;25.10;;;;;;2231411;62;20431;-64
2022/11/24 05:50:59;0.00;0.00;0.62;0.00;0.00;0.62;3.60;1.43;;;22.20;24.60;;;;;;2233480;62;20535;-64
2022/11/24 05:53:44;0.00;0.00;0.62;0.00;0.00;0.62;3.83;1.50;;;22.20;24.60;;;;;;2235438;62;20378;-64
2022/11/24 05:56:29;0.00;0.00;0.62;0.00;0.00;0.62;3.63;1.67;;;22.20;24.60;;;;;;2235521;62;20366;-62
2022/11/24 05:59:14;0.00;0.00;0.62;0.00;0.00;0.62;4.00;2.00;;;22.20;24.60;;;;;;2236110;62;20930;-63
2022/11/24 06:01:59;0.00;0.00;0.62;0.00;0.00;0.62;3.50;1.30;;;22.10;24.50;;;;;;2235397;62;20398;-62
2022/11/24 06:04:45;0.00;0.00;0.62;0.00;0.00;0.62;4.13;1.63;;;22.10;24.60;;;;;;2235565;62;20541;-64
2022/11/24 06:07:29;0.00;0.00;0.62;0.00;0.00;0.62;4.80;1.67;;;22.10;24.60;;;;;;2236125;62;20467;-63
2022/11/24 06:10:15;0.00;0.00;0.62;0.00;0.00;0.62;3.30;1.43;;;22.10;24.60;;;;;;2235378;62;20405;-61
2022/11/24 06:13:05;0.00;0.00;0.62;0.00;0.00;0.62;2.60;1.60;;;22.10;24.60;;;;;;2236167;62;20358;-62
2022/11/24 06:15:49;0.00;0.00;0.62;0.00;0.00;0.62;2.20;1.60;;;22.10;24.70;;;;;;2235605;62;20463;-62
2022/11/24 06:18:34;0.00;0.00;0.62;0.00;0.00;0.62;2.17;1.40;;;22.10;24.70;;;;;;2235488;62;20760;-64
2022/11/24 06:21:20;0.00;0.00;0.62;0.00;0.00;0.62;4.47;2.07;;;22.10;24.70;;;;;;2236270;62;20423;-64
2022/11/24 06:24:06;0.00;0.00;0.62;0.00;0.00;0.62;4.73;2.03;;;22.00;24.60;;;;;;2235281;62;20514;-63
2022/11/24 06:26:51;0.00;0.00;0.62;0.00;0.00;0.62;3.57;1.70;;;22.00;25.20;;;;;;2235771;62;20931;-63
2022/11/24 06:29:35;0.00;0.00;0.62;0.00;0.00;0.62;2.80;1.77;;;22.00;24.70;;;;;;2236038;62;20367;-63
2022/11/24 06:32:20;0.00;0.00;0.62;0.00;0.00;0.62;4.60;1.90;;;22.00;24.70;;;;;;2235286;62;20389;-64
2022/11/24 06:35:06;0.00;0.00;0.62;0.00;0.00;0.62;4.07;1.87;;;22.00;24.70;;;;;;2236386;62;20371;-62
2022/11/24 06:37:52;0.00;0.00;0.62;0.00;0.00;0.62;3.40;1.50;;;22.00;24.70;;;;;;2235895;62;20681;-63
2022/11/24 06:40:36;0.00;0.00;0.62;0.00;0.00;0.62;2.63;1.40;;;22.00;24.80;;;;;;2235395;62;20390;-62
2022/11/24 06:43:22;0.00;0.00;0.62;0.00;0.00;0.62;2.37;1.40;;;22.00;24.70;;;;;;2236286;62;20778;-63
2022/11/24 06:46:07;0.00;0.00;0.62;0.00;0.00;0.62;3.17;1.80;;;22.00;24.70;;;;;;2235213;62;20374;-63
2022/11/24 06:48:52;0.00;0.00;0.62;0.00;0.00;0.62;2.70;1.70;;;22.00;24.70;;;;;;2235723;62;20403;-63
2022/11/24 06:51:37;0.00;0.00;0.62;0.00;0.00;0.62;2.47;1.53;;;22.00;24.70;;;;;;2235868;62;20934;-63
2022/11/24 06:54:23;0.00;0.00;0.62;0.00;0.00;0.62;3.20;1.80;;;22.00;24.70;;;;;;2235044;62;20504;-63
2022/11/24 06:57:08;0.00;0.00;0.62;0.00;0.00;0.62;3.40;1.73;;;22.00;24.80;;;;;;2235727;62;20452;-64
2022/11/24 06:59:52;0.00;0.00;0.62;0.00;0.00;0.62;2.73;1.80;;;21.90;24.70;;;;;;2235937;62;20370;-63
2022/11/24 07:02:37;0.00;0.00;0.62;0.00;0.00;0.62;3.73;1.60;;;22.00;24.80;;;;;;2235276;62;20397;-64
2022/11/24 07:05:22;0.00;0.00;0.62;0.00;0.00;0.62;4.00;2.13;;;22.00;24.80;;;;;;2236083;62;20398;-63
2022/11/24 07:08:06;0.00;0.00;0.62;0.00;0.00;0.62;3.47;2.07;;;21.90;24.70;;;;;;2234993;62;20373;-63
2022/11/24 07:10:53;0.00;0.00;0.62;0.00;0.00;0.62;3.57;1.70;;;22.00;24.80;;;;;;2235485;62;20887;-64
2022/11/24 07:13:38;0.00;0.00;0.62;0.00;0.00;0.62;4.23;2.07;;;21.90;24.70;;;;;;2236042;62;20837;-62
2022/11/24 07:16:25;0.00;0.00;0.62;0.00;0.00;0.62;3.00;1.80;;;21.90;24.70;;;;;;2235110;62;20391;-63
2022/11/24 07:19:10;0.00;0.00;0.62;0.00;0.00;0.62;3.60;2.00;;;21.90;24.80;;;;;;2235478;62;20498;-59
2022/11/24 07:21:55;0.00;0.00;0.62;0.00;0.00;0.62;3.17;1.80;;;21.90;24.80;;;;;;2235792;62;20409;-63
2022/11/24 07:24:40;0.00;0.00;0.62;0.00;0.00;0.62;3.00;1.53;;;21.90;24.80;;;;;;2235523;62;20485;-63
2022/11/24 07:27:27;0.00;0.00;0.62;0.00;0.00;0.62;4.50;1.53;;;21.90;24.90;;;;;;2236775;61;20774;-63
2022/11/24 07:30:13;0.00;0.00;0.62;0.00;0.00;0.62;2.40;1.53;;;21.90;24.90;;;;;;2236361;61;20373;-62
2022/11/24 07:32:59;0.00;0.00;0.62;0.00;0.00;0.62;3.80;1.70;;;21.90;24.90;;;;;;2240239;61;20461;-61
2022/11/24 07:35:44;0.00;0.00;0.62;0.00;0.00;0.62;2.90;1.90;;;21.90;25.00;;;;;;2240343;61;20362;-61
2022/11/24 07:38:30;0.00;0.00;0.62;0.00;0.00;0.62;5.53;2.00;;;21.80;24.90;;;;;;2239629;61;20403;-63
2022/11/24 07:41:20;0.00;0.00;0.62;0.00;0.00;0.62;3.17;1.90;;;21.90;25.00;;;;;;2240184;61;20481;-63
2022/11/24 07:44:07;0.00;0.00;0.62;0.00;0.00;0.62;3.70;1.70;;;21.80;25.00;;;;;;2240332;61;20385;-63
2022/11/24 07:46:52;0.00;0.00;0.62;0.00;0.00;0.62;5.30;1.87;;;21.90;25.00;;;;;;2239750;61;20370;-63
2022/11/24 07:49:37;0.00;0.00;0.62;0.00;0.00;0.62;5.13;1.77;;;21.80;24.90;;;;;;2240297;61;20872;-63
2022/11/24 07:52:25;0.00;0.00;0.62;0.00;0.00;0.62;3.47;2.00;;;21.80;25.00;;;;;;2239539;61;20448;-62
2022/11/24 07:55:10;0.00;0.00;0.62;0.00;0.00;0.62;4.77;2.00;;;21.80;25.00;;;;;;2240110;61;20365;-63
2022/11/24 07:57:59;0.00;0.00;0.62;0.00;0.00;0.62;5.13;2.37;;;21.80;25.00;;;;;;2237241;61;20362;-63
2022/11/24 08:00:45;0.00;0.00;0.62;0.00;0.00;0.62;6.63;2.90;;;21.80;25.10;;;;;;2235654;62;20820;-59
2022/11/24 08:03:30;0.00;0.00;0.62;0.00;0.00;0.62;4.67;2.57;;;21.80;25.10;;;;;;2236117;62;20367;-64
2022/11/24 08:06:14;0.00;0.00;0.62;0.00;0.00;0.62;7.10;3.37;;;21.70;25.10;;;;;;2236532;62;20431;-62
2022/11/24 08:08:59;0.00;0.00;0.62;0.00;0.00;0.62;6.27;3.50;;;21.70;25.10;;;;;;2235409;62;20454;-62
2022/11/24 08:11:44;0.00;0.00;0.62;0.00;0.00;0.62;11.20;5.23;;;21.70;25.10;;;;;;2236418;62;20434;-62
2022/11/24 08:14:28;0.00;0.00;0.62;0.00;0.00;0.62;10.10;4.50;;;21.70;25.10;;;;;;2235720;62;20366;-61
2022/11/24 08:17:14;0.00;0.00;0.62;0.00;0.00;0.62;13.33;5.60;;;21.70;25.70;;;;;;2236189;62;20418;-63
2022/11/24 08:19:59;0.00;0.00;0.62;0.00;0.00;0.62;9.10;5.20;;;21.70;25.20;;;;;;2236307;62;20393;-63
2022/11/24 08:22:43;0.00;0.00;0.62;0.00;0.00;0.62;9.80;4.80;;;21.70;25.20;;;;;;2235888;62;20490;-63
2022/11/24 08:25:31;0.00;0.00;0.62;0.00;0.00;0.62;7.63;4.00;;;21.70;25.20;;;;;;2236019;62;20378;-63
2022/11/24 08:28:15;0.00;0.00;0.62;0.00;0.00;0.62;8.30;4.00;;;21.70;25.20;;;;;;2235895;62;20791;-65
2022/11/24 08:31:06;0.00;0.00;0.62;0.00;0.00;0.62;7.00;4.20;;;21.70;25.10;;;;;;2235221;62;20386;-63
2022/11/24 08:33:54;0.00;0.00;0.62;0.00;0.00;0.62;5.70;3.50;;;21.70;25.20;;;;;;2236267;62;20443;-64
2022/11/24 08:36:39;0.00;0.00;0.62;0.00;0.00;0.62;6.13;3.53;;;21.70;25.10;;;;;;2235790;62;20464;-61
2022/11/24 08:39:24;0.00;0.00;0.62;0.00;0.00;0.62;6.20;3.83;;;21.80;25.20;;;;;;2236560;61;20773;-64
2022/11/24 08:42:09;0.00;0.00;0.62;0.00;0.00;0.62;7.13;4.03;;;21.70;25.20;;;;;;2240641;61;20433;-63
2022/11/24 08:44:54;0.00;0.00;0.62;0.00;0.00;0.62;7.40;4.23;;;21.70;25.20;;;;;;2239633;61;20392;-62
2022/11/24 08:47:39;0.00;0.00;0.62;0.00;0.00;0.62;9.33;4.40;;;21.80;25.30;;;;;;2239867;61;20906;-61
2022/11/24 08:50:25;0.00;0.00;0.62;0.00;0.00;0.62;5.23;3.10;;;21.80;25.40;;;;;;2240334;61;20369;-61
2022/11/24 08:53:09;0.00;0.00;0.62;0.00;0.00;0.62;4.90;3.63;;;21.80;25.40;;;;;;2239555;61;20893;-63
2022/11/24 08:55:59;0.00;0.00;0.62;0.00;0.00;0.62;8.40;3.30;;;21.80;25.40;;;;;;2240399;61;20405;-61
2022/11/24 08:58:44;0.00;0.00;0.62;0.00;0.00;0.62;8.00;3.67;;;21.80;25.40;;;;;;2239769;61;20393;-65
2022/11/24 09:01:28;0.00;0.00;0.62;0.00;0.00;0.62;6.13;3.40;;;21.80;25.40;;;;;;2239717;61;20966;-64
2022/11/24 09:04:13;0.00;0.00;0.62;0.00;0.00;0.62;6.53;3.33;;;21.80;25.40;;;;;;2240231;61;20480;-64
2022/11/24 09:06:59;0.00;0.00;0.62;0.00;0.00;0.62;7.37;3.73;;;21.90;25.50;;;;;;2239696;61;20425;-64
2022/11/24 09:09:44;0.00;0.00;0.62;0.00;0.00;0.62;5.50;2.93;;;21.80;25.40;;;;;;2239667;61;20448;-63
2022/11/24 09:12:29;0.00;0.00;0.62;0.00;0.00;0.62;6.10;3.40;;;21.90;25.40;;;;;;2240163;61;20425;-64
2022/11/24 09:15:15;0.00;0.00;0.62;0.00;0.00;0.62;4.67;2.53;;;21.90;25.50;;;;;;2239746;61;20933;-64
2022/11/24 09:18:00;0.00;0.00;0.62;0.00;0.00;0.62;4.87;3.13;;;21.90;25.50;;;;;;2240118;61;20509;-63
2022/11/24 09:20:44;0.00;0.00;0.62;0.00;0.00;0.62;5.73;3.33;;;21.90;25.50;;;;;;2239533;61;20786;-65
2022/11/24 09:23:30;0.00;0.00;0.62;0.00;0.00;0.62;5.33;2.90;;;21.90;25.50;;;;;;2239910;61;20839;-65
2022/11/24 09:26:17;0.00;0.00;0.62;0.00;0.00;0.62;4.57;2.83;;;21.90;25.50;;;;;;2239944;61;20373;-64
2022/11/24 09:29:06;0.00;0.00;0.62;0.00;0.00;0.62;4.30;2.50;;;22.00;25.70;;;;;;2236354;61;20400;-63
2022/11/24 09:31:51;0.00;0.00;0.62;0.00;0.00;0.62;3.57;2.33;;;22.00;25.70;;;;;;2239738;61;21041;-65
2022/11/24 09:34:36;0.00;0.00;0.62;0.00;0.00;0.62;5.63;2.50;;;22.00;25.60;;;;;;2240192;61;20374;-65
2022/11/24 09:37:20;0.00;0.00;0.62;0.00;0.00;0.62;4.93;2.53;;;22.00;25.60;;;;;;2236326;61;20461;-64
2022/11/24 09:40:12;0.00;0.00;0.62;0.00;0.00;0.62;6.93;3.30;;;22.10;25.70;;;;;;2240177;61;21109;-65
2022/11/24 09:43:02;0.00;0.00;0.62;0.00;0.00;0.62;4.73;2.43;;;22.10;25.70;;;;;;2239586;61;20397;-65
2022/11/24 09:45:54;0.00;0.00;0.62;0.00;0.00;0.62;5.40;2.60;;;22.10;25.70;;;;;;2286557;58;20434;-68
2022/11/24 09:48:45;0.00;0.00;0.62;0.00;0.00;0.62;4.90;2.23;;;22.20;26.30;;;;;;2236510;62;20366;-65
2022/11/24 09:51:32;0.00;0.00;0.62;0.00;0.00;0.62;3.97;2.13;;;22.20;25.80;;;;;;2235515;61;20405;-68
2022/11/24 09:54:22;0.00;0.00;0.62;0.00;0.00;0.62;6.73;2.40;;;22.30;25.90;;;;;;2238584;61;20882;-64
2022/11/24 09:57:12;0.00;0.00;0.62;0.00;0.00;0.62;4.40;2.50;;;22.30;25.90;;;;;;2239844;61;20373;-64
2022/11/24 10:00:06;0.00;0.00;0.62;0.00;0.00;0.62;4.60;2.40;;;22.30;25.90;;;;;;2238985;61;20441;-63
2022/11/24 10:02:56;0.00;0.00;0.62;0.00;0.00;0.62;5.83;2.90;;;22.40;25.90;;;;;;2240107;61;20507;-63
2022/11/24 10:05:42;0.00;0.00;0.62;0.00;0.00;0.62;3.20;1.93;;;22.40;25.90;;;;;;2239281;61;20397;-65
2022/11/24 10:08:48;0.00;0.00;0.62;0.00;0.00;0.62;3.20;1.87;;;22.50;26.00;;;;;;2239621;61;20859;-63
2022/11/24 10:11:45;0.00;0.00;0.62;0.00;0.00;0.62;2.80;1.83;;;22.50;26.00;;;;;;2240304;61;20910;-66
2022/11/24 10:15:01;0.00;0.00;0.62;0.00;0.00;0.62;4.17;2.33;;;22.50;26.00;;;;;;2239679;61;20421;-64
2022/11/24 10:18:13;0.00;0.00;0.62;0.00;0.00;0.62;3.50;2.10;;;22.60;26.10;;;;;;2239798;61;20417;-66
2022/11/24 10:21:14;0.00;0.00;0.62;0.00;0.00;0.62;3.13;2.03;;;22.60;26.10;;;;;;2239471;61;20392;-67
2022/11/24 10:24:35;0.00;0.00;0.62;0.00;0.00;0.62;2.50;1.80;;;22.70;26.10;;;;;;2239719;61;20898;-65
2022/11/24 10:27:29;0.00;0.00;0.62;0.00;0.00;0.62;4.13;2.30;;;22.70;26.20;;;;;;2239826;61;20381;-68
2022/11/24 10:30:19;0.00;0.00;0.62;0.00;0.00;0.62;4.03;2.10;;;22.70;26.10;;;;;;2239531;61;20809;-69
2022/11/24 10:33:16;0.00;0.00;0.62;0.00;0.00;0.62;3.17;1.83;;;22.80;26.10;;;;;;2240077;61;20405;-62
2022/11/24 10:36:08;0.00;0.00;0.62;0.00;0.00;0.62;3.60;2.17;;;22.80;26.00;;;;;;2239458;61;20397;-61
2022/11/24 10:39:00;0.00;0.00;0.62;0.00;0.00;0.62;2.50;1.80;;;22.90;26.10;;;;;;2239559;61;20377;-64
2022/11/24 10:41:51;0.00;0.00;0.62;0.00;0.00;0.62;3.77;2.00;;;22.90;26.10;;;;;;2240013;61;20382;-62
2022/11/24 10:44:36;0.00;0.00;0.62;0.00;0.00;0.62;2.40;1.67;;;22.90;26.10;;;;;;2239400;61;20476;-64
2022/11/24 10:47:22;0.00;0.00;0.62;0.00;0.00;0.62;3.10;1.70;;;23.00;26.10;;;;;;2240038;61;20364;-63
2022/11/24 10:50:20;0.00;0.00;0.62;0.00;0.00;0.62;3.27;1.97;;;23.00;26.00;;;;;;2239401;61;20393;-62
2022/11/24 10:53:17;0.00;0.00;0.62;0.00;0.00;0.62;2.87;1.80;;;23.10;26.10;;;;;;2239390;61;20891;-63
2022/11/24 10:56:04;0.00;0.00;0.62;0.00;0.00;0.62;2.63;1.60;;;23.10;26.00;;;;;;2236682;61;21017;-62
2022/11/24 10:58:49;0.00;0.00;0.62;0.00;0.00;0.62;3.63;1.90;;;23.20;26.00;;;;;;2235812;62;20426;-65
2022/11/24 11:01:34;0.00;0.00;0.62;0.00;0.00;0.62;3.07;1.60;;;23.20;26.00;;;;;;2236727;62;20398;-66